Time;durP1;ratioP1;P1;durP2;ratioP2;P2;SDS_P1;SDS_P2;PMS_P1;PMS_P2;Temp;Humidity;BMP_temperature;BMP_pressure;BME280_temperature;BME280_humidity;BME280_pressure;Samples;Min_cycle;Max_cycle;Signal;HPM_P1;HPM_P2
2022/07/13 00:02:19;;;;;;;1.13;0.60;;;;;;;23.07;37.38;99235.97;6156136;23;20148;-87
2022/07/13 00:04:44;;;;;;;1.50;0.70;;;;;;;22.76;37.62;99232.06;6156476;23;20151;-86
2022/07/13 00:07:10;;;;;;;3.20;0.70;;;;;;;22.79;37.88;99229.09;6154920;23;20159;-87
2022/07/13 00:09:35;;;;;;;2.00;0.60;;;;;;;22.88;37.99;99230.81;6155978;23;20151;-87
2022/07/13 00:12:00;;;;;;;1.00;0.60;;;;;;;22.83;38.23;99226.94;6156027;23;20154;-87
2022/07/13 00:14:26;;;;;;;1.90;0.87;;;;;;;22.87;38.27;99234.50;6156414;23;20158;-88
2022/07/13 00:16:51;;;;;;;5.43;0.83;;;;;;;22.81;38.39;99226.25;6156392;23;20574;-87
2022/07/13 00:19:17;;;;;;;1.23;0.63;;;;;;;22.82;37.83;99230.63;6156318;23;20328;-88
2022/07/13 00:21:42;;;;;;;0.60;0.40;;;;;;;22.85;38.12;99228.44;6156338;23;20151;-87
2022/07/13 00:24:08;;;;;;;1.37;0.60;;;;;;;22.94;37.53;99226.69;6156285;23;20583;-88
2022/07/13 00:26:33;;;;;;;0.77;0.50;;;;;;;22.93;37.78;99225.03;6155961;23;20147;-87
2022/07/13 00:28:59;;;;;;;0.90;0.47;;;;;;;22.86;37.73;99231.97;6155918;23;20151;-87
2022/07/13 00:31:24;;;;;;;1.43;0.80;;;;;;;22.79;38.34;99228.25;6155841;23;20246;-87
2022/07/13 00:33:49;;;;;;;1.00;0.50;;;;;;;22.84;37.97;99231.28;6156269;23;20601;-87
2022/07/13 00:36:15;;;;;;;1.43;0.50;;;;;;;22.90;38.34;99226.19;6156196;23;20225;-87
2022/07/13 00:38:40;;;;;;;1.67;0.50;;;;;;;22.91;37.82;99227.00;6154740;23;20165;-87
2022/07/13 00:41:06;;;;;;;1.07;0.50;;;;;;;22.84;37.90;99218.78;6154721;23;20147;-87
2022/07/13 00:43:32;;;;;;;1.93;0.53;;;;;;;22.81;37.75;99221.75;6155715;23;20167;-87
2022/07/13 00:45:58;;;;;;;3.33;0.70;;;;;;;22.82;38.01;99222.59;6156246;23;20178;-88
2022/07/13 00:48:23;;;;;;;0.77;0.47;;;;;;;22.69;38.04;99222.16;6155881;23;20537;-87
2022/07/13 00:50:50;;;;;;;0.73;0.30;;;;;;;22.74;38.53;99219.84;6155789;23;20194;-87
2022/07/13 00:53:17;;;;;;;1.17;0.60;;;;;;;22.66;38.08;99223.31;6157466;23;20147;-87
2022/07/13 00:55:43;;;;;;;3.33;0.60;;;;;;;22.67;38.26;99226.84;6159138;23;20217;-87
2022/07/13 00:58:09;;;;;;;0.93;0.60;;;;;;;22.64;37.96;99223.44;6159810;23;20155;-87
2022/07/13 01:00:36;;;;;;;1.10;0.50;;;;;;;22.35;38.54;99225.50;6159132;23;20503;-87
2022/07/13 01:03:02;;;;;;;2.83;0.90;;;;;;;22.23;38.91;99234.72;6159035;23;20182;-87
2022/07/13 01:05:28;;;;;;;2.63;0.50;;;;;;;22.16;38.49;99224.81;6159051;23;20151;-87
2022/07/13 01:07:53;;;;;;;1.73;0.80;;;;;;;22.16;38.62;99225.66;6159352;23;20171;-86
2022/07/13 01:10:19;;;;;;;3.07;0.73;;;;;;;22.27;38.24;99227.25;6158983;23;20245;-88
2022/07/13 01:12:44;;;;;;;2.07;0.50;;;;;;;22.18;38.56;99223.66;6159020;23;20147;-86
2022/07/13 01:15:10;;;;;;;1.20;0.60;;;;;;;22.06;38.77;99222.22;6157867;23;20158;-88
2022/07/13 01:17:38;;;;;;;1.67;0.87;;;;;;;22.08;39.24;99219.38;6157798;23;20166;-87
2022/07/13 01:20:05;;;;;;;2.47;0.73;;;;;;;21.92;38.89;99218.22;6157811;23;20491;-88
2022/07/13 01:22:41;;;;;;;1.47;0.60;;;;;;;21.92;39.02;99217.38;6159259;23;20601;-87
2022/07/13 01:25:09;;;;;;;4.00;0.90;;;;;;;21.96;39.09;99224.09;6157842;23;20209;-86
2022/07/13 01:27:37;;;;;;;1.03;0.70;;;;;;;21.98;39.12;99222.13;6158977;23;20147;-86
2022/07/13 01:30:03;;;;;;;2.13;0.53;;;;;;;21.83;39.08;99226.25;6158851;23;20229;-86
2022/07/13 01:32:29;;;;;;;0.80;0.50;;;;;;;21.91;38.76;99211.19;6159611;23;20268;-87
2022/07/13 01:34:54;;;;;;;7.00;0.80;;;;;;;21.97;38.71;99220.44;6159247;23;20528;-86
2022/07/13 01:37:20;;;;;;;5.60;0.87;;;;;;;21.93;38.28;99208.41;6159299;23;20154;-87
2022/07/13 01:39:46;;;;;;;1.30;0.60;;;;;;;21.67;39.30;99210.88;6157763;23;20151;-87
2022/07/13 01:42:11;;;;;;;3.07;0.70;;;;;;;21.82;38.94;99216.56;6158755;23;20167;-87
2022/07/13 01:44:37;;;;;;;1.40;0.83;;;;;;;21.84;38.84;99209.25;6157793;23;20179;-87
2022/07/13 01:47:08;;;;;;;1.60;0.60;;;;;;;21.91;38.61;99208.53;6159154;23;20151;-87
2022/07/13 01:49:34;;;;;;;1.73;0.53;;;;;;;21.86;38.74;99213.47;6158838;23;20151;-87
2022/07/13 01:52:00;;;;;;;1.30;0.80;;;;;;;21.90;38.54;99200.69;6159139;23;20555;-87
2022/07/13 01:54:25;;;;;;;1.53;0.60;;;;;;;21.73;39.06;99206.78;6158879;23;20186;-87
2022/07/13 01:56:51;;;;;;;2.60;0.90;;;;;;;21.73;39.37;99210.28;6158844;23;20151;-86
2022/07/13 01:59:16;;;;;;;2.20;0.50;;;;;;;21.58;39.93;99208.28;6158845;23;20151;-86
2022/07/13 02:01:42;;;;;;;1.13;0.40;;;;;;;21.69;39.44;99202.75;6158817;23;20210;-87
2022/07/13 02:04:07;;;;;;;1.90;0.70;;;;;;;21.79;39.42;99199.03;6158498;23;20471;-87
2022/07/13 02:06:32;;;;;;;2.00;0.63;;;;;;;21.57;39.96;99206.59;6157567;23;20162;-86
2022/07/13 02:08:58;;;;;;;1.47;0.70;;;;;;;21.50;39.86;99205.50;6157235;23;20189;-87
2022/07/13 02:11:23;;;;;;;2.93;0.70;;;;;;;21.67;39.49;99202.88;6157155;23;20184;-87
2022/07/13 02:13:49;;;;;;;1.13;0.70;;;;;;;21.48;39.96;99204.81;6157165;23;20147;-87
2022/07/13 02:16:16;;;;;;;1.10;0.50;;;;;;;21.45;39.96;99211.28;6157178;23;20159;-87
2022/07/13 02:18:42;;;;;;;3.60;0.80;;;;;;;21.34;40.08;99217.66;6157131;23;20174;-87
2022/07/13 02:21:07;;;;;;;2.03;0.80;;;;;;;21.15;40.48;99215.03;6157112;23;20178;-86
2022/07/13 02:23:33;;;;;;;1.17;0.80;;;;;;;21.17;40.66;99215.72;6157080;23;20151;-87
2022/07/13 02:25:58;;;;;;;0.93;0.70;;;;;;;21.19;40.50;99218.28;6157386;23;20214;-88
2022/07/13 02:28:24;;;;;;;4.77;0.73;;;;;;;21.25;40.62;99210.50;6156227;23;20166;-87
2022/07/13 02:30:49;;;;;;;2.90;0.70;;;;;;;21.23;40.31;99214.31;6155737;23;20179;-87
2022/07/13 02:33:15;;;;;;;1.03;0.67;;;;;;;21.27;39.65;99216.56;6156955;23;20150;-88
2022/07/13 02:35:40;;;;;;;2.90;0.93;;;;;;;21.41;39.95;99223.22;6157624;23;20162;-87
2022/07/13 02:38:06;;;;;;;2.20;0.87;;;;;;;21.35;39.92;99219.34;6157031;23;20147;-87
2022/07/13 02:40:32;;;;;;;2.43;0.90;;;;;;;21.38;39.70;99213.69;6156944;23;20530;-87
2022/07/13 02:42:57;;;;;;;3.20;0.73;;;;;;;21.42;39.61;99219.59;6156852;23;20174;-87
2022/07/13 02:45:22;;;;;;;1.13;0.57;;;;;;;21.32;39.91;99216.13;6156925;23;20151;-87
2022/07/13 02:47:48;;;;;;;1.90;0.60;;;;;;;21.14;39.93;99225.88;6156855;23;20221;-87
2022/07/13 02:50:14;;;;;;;1.70;0.80;;;;;;;21.15;40.30;99223.03;6156793;23;20182;-86
2022/07/13 02:52:40;;;;;;;1.40;0.77;;;;;;;21.03;40.30;99223.34;6156014;23;20167;-87
2022/07/13 02:55:06;;;;;;;2.40;0.80;;;;;;;21.21;39.88;99218.97;6156809;23;20147;-87
2022/07/13 02:57:31;;;;;;;5.43;1.00;;;;;;;21.19;39.82;99216.44;6156819;23;20158;-87
2022/07/13 02:59:58;;;;;;;1.70;0.80;;;;;;;21.23;39.84;99220.50;6156784;23;20150;-87
2022/07/13 03:02:23;;;;;;;2.07;0.70;;;;;;;21.14;40.28;99218.72;6155580;23;20151;-86
2022/07/13 03:04:49;;;;;;;4.17;0.73;;;;;;;21.17;40.30;99215.72;6157029;23;20218;-86
2022/07/13 03:07:15;;;;;;;1.00;0.60;;;;;;;21.32;39.77;99214.28;6157002;23;20161;-87
2022/07/13 03:09:41;;;;;;;1.03;0.80;;;;;;;21.29;40.14;99214.59;6156897;23;20147;-87
2022/07/13 03:12:06;;;;;;;1.20;0.60;;;;;;;21.16;40.10;99214.06;6156631;23;20158;-87
2022/07/13 03:14:32;;;;;;;2.13;1.00;;;;;;;21.21;39.87;99211.81;6156665;23;20155;-87
2022/07/13 03:16:57;;;;;;;2.73;1.00;;;;;;;21.30;39.67;99210.09;6155981;23;20151;-87
2022/07/13 03:19:23;;;;;;;1.17;0.60;;;;;;;21.29;39.63;99213.75;6156606;23;20151;-86
2022/07/13 03:21:49;;;;;;;2.70;0.60;;;;;;;21.25;40.17;99212.38;6156547;23;20147;-86
2022/07/13 03:24:14;;;;;;;1.60;0.93;;;;;;;21.29;39.93;99206.59;6156860;23;20151;-86
2022/07/13 03:26:40;;;;;;;0.70;0.47;;;;;;;21.19;40.54;99211.13;6156808;23;20590;-87
2022/07/13 03:29:05;;;;;;;1.10;0.70;;;;;;;21.11;40.30;99211.00;6156469;23;20567;-86
2022/07/13 03:31:31;;;;;;;1.90;0.73;;;;;;;21.20;40.24;99210.13;6155221;23;20632;-88
2022/07/13 03:33:56;;;;;;;0.60;0.50;;;;;;;21.27;40.46;99216.56;6157115;23;20464;-87
2022/07/13 03:36:21;;;;;;;2.63;0.70;;;;;;;21.32;40.32;99221.44;6156417;23;20209;-88
2022/07/13 03:38:47;;;;;;;1.57;0.80;;;;;;;21.18;40.53;99222.75;6156378;23;20147;-87
2022/07/13 03:41:12;;;;;;;4.63;0.63;;;;;;;21.23;40.72;99225.81;6156682;23;20563;-86
2022/07/13 03:43:38;;;;;;;1.67;0.60;;;;;;;21.38;40.17;99219.03;6156262;23;20177;-87
2022/07/13 03:46:03;;;;;;;1.43;0.60;;;;;;;21.28;40.65;99220.03;6156686;23;20179;-86
2022/07/13 03:48:29;;;;;;;1.00;0.80;;;;;;;21.33;40.44;99221.28;6156975;23;20151;-87
2022/07/13 03:50:54;;;;;;;1.80;0.67;;;;;;;21.35;40.16;99219.34;6156154;23;20182;-87
2022/07/13 03:53:20;;;;;;;1.60;0.70;;;;;;;21.49;40.45;99214.50;6156253;23;20151;-86
2022/07/13 03:55:45;;;;;;;3.43;0.40;;;;;;;21.41;40.75;99217.88;6156192;23;20159;-86
2022/07/13 03:58:11;;;;;;;1.20;0.47;;;;;;;21.41;40.59;99218.72;6156890;23;20151;-86
2022/07/13 04:00:37;;;;;;;1.60;0.77;;;;;;;21.59;40.10;99216.16;6155381;23;20151;-87
2022/07/13 04:03:04;;;;;;;1.30;0.60;;;;;;;21.56;40.17;99220.94;6155382;23;20155;-86
2022/07/13 04:05:30;;;;;;;1.20;0.70;;;;;;;21.36;40.33;99226.34;6156774;23;20151;-86
2022/07/13 04:07:55;;;;;;;2.60;0.60;;;;;;;21.43;40.38;99221.28;6156823;23;20173;-87
2022/07/13 04:10:21;;;;;;;1.27;0.40;;;;;;;21.46;40.32;99225.47;6154869;23;20626;-87
2022/07/13 04:12:48;;;;;;;0.70;0.50;;;;;;;21.50;40.63;99224.19;6156372;23;20162;-87
2022/07/13 04:15:14;;;;;;;1.13;0.63;;;;;;;21.34;41.09;99222.97;6156070;23;20139;-87
2022/07/13 04:17:40;;;;;;;2.27;0.73;;;;;;;21.29;41.06;99222.59;6154824;23;20158;-86
2022/07/13 04:20:07;;;;;;;1.23;0.73;;;;;;;21.32;41.05;99219.63;6154816;23;20155;-87
2022/07/13 04:22:32;;;;;;;1.40;0.60;;;;;;;21.32;41.23;99224.13;6154816;23;20226;-86
2022/07/13 04:24:58;;;;;;;2.97;0.70;;;;;;;21.39;41.01;99215.38;6156306;23;20155;-87
2022/07/13 04:27:23;;;;;;;1.20;0.60;;;;;;;21.53;40.76;99216.72;6155804;23;20158;-87
2022/07/13 04:29:49;;;;;;;1.70;1.23;;;;;;;21.59;40.42;99213.47;6155098;23;20666;-87
2022/07/13 04:32:15;;;;;;;1.37;0.67;;;;;;;21.61;40.82;99207.97;6155968;23;20150;-86
2022/07/13 04:34:40;;;;;;;3.17;0.50;;;;;;;21.53;40.53;99210.53;6155943;23;20480;-86
2022/07/13 04:37:05;;;;;;;1.70;0.87;;;;;;;21.56;41.03;99212.94;6156291;23;20571;-88
2022/07/13 04:39:31;;;;;;;1.50;0.60;;;;;;;21.79;40.61;99209.72;6156236;23;20158;-87
2022/07/13 04:41:58;;;;;;;0.70;0.47;;;;;;;21.81;40.87;99207.72;6155431;23;20207;-86
2022/07/13 04:44:25;;;;;;;1.03;0.70;;;;;;;21.92;40.54;99207.56;6156301;23;20136;-88
2022/07/13 04:46:51;;;;;;;2.00;0.50;;;;;;;21.85;40.45;99205.59;6154648;23;20155;-89
2022/07/13 04:49:19;;;;;;;1.77;0.90;;;;;;;21.91;40.43;99205.00;6154658;23;20161;-86
2022/07/13 04:51:44;;;;;;;1.37;0.40;;;;;;;22.07;39.93;99205.19;6156074;23;20174;-87
2022/07/13 04:54:10;;;;;;;5.53;0.70;;;;;;;22.01;40.64;99200.47;6155848;23;20221;-86
2022/07/13 04:56:35;;;;;;;5.80;0.70;;;;;;;22.08;40.34;99206.88;6155832;23;20147;-87
2022/07/13 04:59:01;;;;;;;2.00;0.70;;;;;;;22.17;40.01;99210.47;6156156;23;20567;-88
2022/07/13 05:01:26;;;;;;;1.73;0.77;;;;;;;22.22;39.98;99209.00;6155743;23;20474;-88
2022/07/13 05:03:52;;;;;;;2.03;0.80;;;;;;;22.33;39.76;99214.13;6154544;23;20591;-87
2022/07/13 05:06:17;;;;;;;1.63;0.80;;;;;;;22.43;39.82;99212.22;6155757;23;20147;-87
2022/07/13 05:08:43;;;;;;;1.03;0.40;;;;;;;22.40;39.90;99207.19;6154622;23;20230;-88
2022/07/13 05:11:08;;;;;;;0.80;0.43;;;;;;;22.50;38.86;99213.28;6155643;23;20179;-87
2022/07/13 05:13:34;;;;;;;1.27;0.53;;;;;;;22.62;39.37;99217.44;6155754;23;20455;-87
2022/07/13 05:15:59;;;;;;;0.50;0.30;;;;;;;22.55;39.04;99216.34;6154574;23;20154;-88
2022/07/13 05:18:25;;;;;;;1.63;0.70;;;;;;;22.60;38.91;99227.41;6155667;23;20151;-87
2022/07/13 05:20:50;;;;;;;0.77;0.50;;;;;;;22.72;39.23;99221.84;6154537;23;20250;-87
2022/07/13 05:23:16;;;;;;;4.03;0.60;;;;;;;22.86;38.64;99226.63;6156014;23;20158;-87
2022/07/13 05:25:41;;;;;;;1.43;0.50;;;;;;;23.03;38.05;99226.59;6154474;23;20155;-88
2022/07/13 05:28:07;;;;;;;0.90;0.40;;;;;;;23.17;38.21;99226.00;6155655;23;20155;-88
2022/07/13 05:30:32;;;;;;;0.27;0.20;;;;;;;23.20;37.79;99227.53;6155548;23;20179;-88
2022/07/13 05:32:58;;;;;;;0.53;0.30;;;;;;;23.32;37.32;99231.63;6155659;23;20226;-86
2022/07/13 05:35:23;;;;;;;1.67;0.50;;;;;;;23.50;36.94;99223.56;6155621;23;20147;-88
2022/07/13 05:37:49;;;;;;;0.90;0.50;;;;;;;23.64;37.10;99236.31;6154505;23;20166;-87
2022/07/13 05:40:14;;;;;;;0.67;0.30;;;;;;;23.77;36.82;99236.69;6156418;23;20143;-87
2022/07/13 05:42:40;;;;;;;1.60;0.40;;;;;;;24.01;36.18;99226.06;6157529;23;20206;-89
2022/07/13 05:45:06;;;;;;;2.00;0.30;;;;;;;23.98;36.22;99230.94;6156306;23;20169;-87
2022/07/13 05:47:31;;;;;;;1.03;0.60;;;;;;;24.02;36.55;99229.59;6156265;23;20723;-89
2022/07/13 05:49:57;;;;;;;0.30;0.30;;;;;;;24.13;36.01;99227.50;6157282;23;20175;-88
2022/07/13 05:52:22;;;;;;;2.17;0.60;;;;;;;24.18;35.92;99229.66;6157410;23;20222;-88
2022/07/13 05:54:48;;;;;;;1.80;0.50;;;;;;;24.23;36.38;99219.28;6157355;23;20178;-88
2022/07/13 05:57:13;;;;;;;1.00;0.30;;;;;;;24.47;36.14;99216.66;6157634;23;20582;-87
2022/07/13 05:59:39;;;;;;;1.73;0.40;;;;;;;24.55;36.44;99221.16;6157370;23;20226;-89
2022/07/13 06:02:04;;;;;;;0.93;0.30;;;;;;;24.80;36.75;99225.53;6157291;23;20157;-88
2022/07/13 06:04:30;;;;;;;1.03;0.47;;;;;;;24.91;35.74;99223.38;6157277;23;20459;-87
2022/07/13 06:06:55;;;;;;;2.43;1.00;;;;;;;24.88;36.63;99230.91;6157611;23;20186;-87
2022/07/13 06:09:21;;;;;;;0.47;0.40;;;;;;;25.10;35.69;99227.53;6157220;23;20162;-87
2022/07/13 06:11:46;;;;;;;2.10;0.50;;;;;;;25.17;35.25;99233.88;6157102;23;20175;-88
2022/07/13 06:14:13;;;;;;;0.70;0.40;;;;;;;25.16;34.55;99224.16;6157555;23;20162;-88
2022/07/13 06:16:39;;;;;;;2.03;1.00;;;;;;;25.31;34.21;99232.34;6157542;23;20271;-87
2022/07/13 06:19:04;;;;;;;3.03;0.50;;;;;;;25.34;34.51;99234.69;6157487;23;20165;-88
2022/07/13 06:21:30;;;;;;;1.53;0.60;;;;;;;25.24;34.09;99224.13;6157529;23;20158;-88
2022/07/13 06:23:55;;;;;;;1.93;0.70;;;;;;;25.39;34.45;99226.97;6157173;23;20154;-88
2022/07/13 06:26:21;;;;;;;2.83;0.47;;;;;;;25.54;34.55;99236.00;6157119;23;20155;-88
2022/07/13 06:28:46;;;;;;;0.63;0.30;;;;;;;25.82;34.36;99222.94;6157756;23;20147;-87
2022/07/13 06:31:12;;;;;;;1.90;0.50;;;;;;;25.97;33.43;99229.28;6155814;23;20187;-89
2022/07/13 06:33:37;;;;;;;1.57;0.50;;;;;;;25.91;32.68;99222.75;6157751;23;20151;-87
2022/07/13 06:36:06;;;;;;;2.47;0.70;;;;;;;26.08;32.91;99224.31;6157310;23;20155;-90
2022/07/13 06:38:31;;;;;;;2.13;0.60;;;;;;;26.19;32.08;99220.44;6157268;23;20532;-89
2022/07/13 06:40:56;;;;;;;1.23;0.40;;;;;;;26.40;32.73;99217.94;6156958;23;20143;-88
2022/07/13 06:43:22;;;;;;;1.80;0.60;;;;;;;26.64;32.73;99214.22;6156884;23;20258;-87
2022/07/13 06:45:47;;;;;;;0.83;0.50;;;;;;;26.98;32.40;99219.16;6156947;23;20148;-88
2022/07/13 06:48:14;;;;;;;0.27;0.20;;;;;;;27.26;31.53;99215.66;6157167;23;20597;-89
2022/07/13 06:50:39;;;;;;;0.73;0.30;;;;;;;27.50;31.65;99206.50;6156956;23;20183;-87
2022/07/13 06:53:05;;;;;;;0.65;0.30;;;;;;;27.63;30.38;99205.84;6156868;23;20651;-90
2022/07/13 06:55:31;;;;;;;1.52;0.20;;;;;;;27.70;30.87;99202.22;6155660;23;20167;-87
2022/07/13 06:57:57;;;;;;;0.25;0.10;;;;;;;27.82;30.23;99199.88;6155584;23;20247;-88
2022/07/13 07:00:22;;;;;;;1.40;0.25;;;;;;;28.06;29.71;99202.28;6155603;23;20147;-89
2022/07/13 07:02:48;;;;;;;3.50;0.47;;;;;;;28.02;30.27;99199.13;6156748;23;20151;-88
2022/07/13 07:05:13;;;;;;;0.80;0.22;;;;;;;28.26;29.35;99203.31;6156787;23;20174;-88
2022/07/13 07:07:40;;;;;;;5.35;0.40;;;;;;;28.40;29.85;99213.22;6156753;23;20225;-90
2022/07/13 07:10:07;;;;;;;0.93;0.50;;;;;;;28.51;29.39;99196.50;6156552;23;20186;-89
2022/07/13 07:12:33;;;;;;;1.95;0.20;;;;;;;28.67;28.82;99200.84;6155534;23;20488;-89
2022/07/13 07:14:58;;;;;;;6.18;0.73;;;;;;;28.90;29.32;99212.25;6156618;23;20291;-90
2022/07/13 07:17:24;;;;;;;1.15;0.60;;;;;;;29.01;29.45;99206.31;6155476;23;20605;-88
2022/07/13 07:19:49;;;;;;;0.80;0.30;;;;;;;29.17;29.17;99203.31;6156619;23;20151;-91
2022/07/13 07:22:15;;;;;;;0.60;0.20;;;;;;;29.23;27.63;99199.03;6156987;23;20590;-88
2022/07/13 07:24:41;;;;;;;3.60;0.40;;;;;;;29.25;28.80;99207.75;6156943;23;20159;-90
2022/07/13 07:27:09;;;;;;;1.05;0.55;;;;;;;29.22;28.06;99213.53;6155421;23;20179;-87
2022/07/13 07:29:35;;;;;;;0.52;0.22;;;;;;;29.27;26.98;99215.66;6155319;23;20222;-90
2022/07/13 07:32:01;;;;;;;1.58;0.40;;;;;;;29.29;27.63;99214.44;6155257;23;20165;-89
2022/07/13 07:34:28;;;;;;;0.93;0.38;;;;;;;29.20;27.53;99213.75;6157114;23;20159;-88
2022/07/13 07:36:54;;;;;;;0.47;0.20;;;;;;;29.46;26.70;99210.38;6156434;23;20222;-89
2022/07/13 07:39:20;;;;;;;0.85;0.20;;;;;;;29.66;27.64;99216.72;6157034;23;20151;-89
2022/07/13 07:41:45;;;;;;;1.33;0.30;;;;;;;29.54;27.54;99226.41;6156580;23;20444;-90
2022/07/13 07:44:11;;;;;;;1.38;0.30;;;;;;;29.41;27.27;99215.53;6156806;23;20147;-90
2022/07/13 07:46:39;;;;;;;2.03;0.85;;;;;;;29.63;26.92;99219.84;6157109;23;20217;-89
2022/07/13 07:49:05;;;;;;;1.33;0.45;;;;;;;29.93;26.89;99211.47;6155335;23;20238;-90
2022/07/13 07:51:30;;;;;;;0.25;0.10;;;;;;;29.85;27.88;99211.66;6155365;23;20548;-90
2022/07/13 07:53:58;;;;;;;0.80;0.28;;;;;;;30.16;27.59;99203.84;6156587;23;20151;-91
2022/07/13 07:56:24;;;;;;;0.22;0.13;;;;;;;30.31;27.22;99207.22;6156235;23;20162;-88
2022/07/13 07:58:50;;;;;;;0.80;0.13;;;;;;;30.29;26.07;99212.81;6156263;23;20230;-90
2022/07/13 08:01:15;;;;;;;0.32;0.20;;;;;;;30.31;26.82;99212.63;6156563;23;20178;-89
2022/07/13 08:03:41;;;;;;;0.50;0.20;;;;;;;30.48;26.22;99211.22;6155908;23;20457;-88
2022/07/13 08:06:07;;;;;;;0.52;0.30;;;;;;;30.47;26.66;99214.13;6156226;23;20151;-88
2022/07/13 08:08:32;;;;;;;0.60;0.20;;;;;;;30.46;25.71;99205.19;6156481;23;20222;-89
2022/07/13 08:10:57;;;;;;;1.83;0.20;;;;;;;30.51;25.63;99208.09;6154885;23;20179;-88
2022/07/13 08:13:26;;;;;;;0.52;0.20;;;;;;;30.54;26.27;99213.09;6156168;23;20158;-90
2022/07/13 08:15:51;;;;;;;1.45;0.40;;;;;;;30.68;25.89;99211.25;6155318;23;20183;-89
2022/07/13 08:18:18;;;;;;;0.77;0.30;;;;;;;30.76;25.78;99200.22;6156386;23;20158;-89
2022/07/13 08:20:44;;;;;;;0.57;0.30;;;;;;;31.01;25.99;99215.66;6155592;23;20491;-90
2022/07/13 08:25:53;;;;;;;0.40;0.15;;;;;;;31.06;26.69;99212.31;6156791;23;20442;-90
2022/07/13 08:28:19;;;;;;;0.30;0.10;;;;;;;31.29;26.65;99214.59;6156348;23;20178;-89
2022/07/13 08:30:45;;;;;;;1.75;0.38;;;;;;;31.39;24.91;99209.56;6154762;23;20610;-87
2022/07/13 08:33:10;;;;;;;0.60;0.20;;;;;;;31.38;26.45;99208.72;6156298;23;20271;-89
2022/07/13 08:38:35;;;;;;;0.47;0.20;;;;;;;31.44;24.69;99204.34;6156637;23;20182;-89
2022/07/13 08:41:01;;;;;;;0.88;0.47;;;;;;;31.55;26.08;99207.22;6155515;23;20150;-89
2022/07/13 08:43:27;;;;;;;0.95;0.17;;;;;;;31.56;25.80;99208.06;6150186;23;20337;-89
2022/07/13 08:45:53;;;;;;;3.25;0.30;;;;;;;31.63;26.48;99206.16;6153030;23;20369;-90
2022/07/13 08:48:29;;;;;;;0.82;0.40;;;;;;;31.69;24.85;99213.44;6153024;23;20300;-89
2022/07/13 08:50:55;;;;;;;0.70;0.35;;;;;;;31.70;24.69;99203.44;6154457;23;20250;-88
2022/07/13 08:53:22;;;;;;;0.75;0.22;;;;;;;31.36;25.18;99207.25;6154412;23;20622;-89
2022/07/13 08:55:49;;;;;;;0.63;0.20;;;;;;;31.32;25.95;99200.59;6155770;23;20182;-88
2022/07/13 08:58:16;;;;;;;1.38;0.30;;;;;;;31.33;24.62;99204.97;6154822;23;20181;-89
2022/07/13 09:00:42;;;;;;;0.22;0.20;;;;;;;31.25;25.66;99200.63;6155463;23;20148;-91
2022/07/13 09:03:09;;;;;;;0.38;0.17;;;;;;;31.44;24.47;99215.16;6154617;23;20161;-90
2022/07/13 09:05:35;;;;;;;0.43;0.25;;;;;;;31.55;24.62;99209.94;6153931;23;20159;-90
2022/07/13 09:08:02;;;;;;;0.85;0.15;;;;;;;31.64;24.56;99205.13;6155099;23;20215;-89
2022/07/13 09:10:28;;;;;;;0.85;0.30;;;;;;;31.56;25.17;99202.66;6154637;23;20190;-91
2022/07/13 09:12:54;;;;;;;0.80;0.22;;;;;;;31.83;25.07;99212.38;6154601;23;20242;-88
2022/07/13 09:15:19;;;;;;;0.80;0.30;;;;;;;32.18;24.40;99197.38;6156960;23;20529;-88
2022/07/13 09:17:47;;;;;;;0.40;0.20;;;;;;;32.28;25.01;99206.94;6157488;23;20579;-89
2022/07/13 09:20:12;;;;;;;1.85;0.35;;;;;;;32.46;23.58;99201.59;6157010;23;20463;-89
2022/07/13 09:22:55;;;;;;;0.10;0.10;;;;;;;32.74;25.22;99199.34;6157171;23;20220;-87
2022/07/13 09:25:30;;;;;;;1.88;0.25;;;;;;;32.93;22.44;99195.63;6157511;23;20136;-88
2022/07/13 09:28:00;;;;;;;0.85;0.20;;;;;;;32.97;23.55;99202.25;6156799;23;20143;-89
2022/07/13 09:30:27;;;;;;;2.25;0.20;;;;;;;32.79;26.04;99199.50;6155636;23;20183;-89
2022/07/13 09:32:57;;;;;;;0.50;0.15;;;;;;;32.97;24.73;99199.56;6155356;23;20530;-88
2022/07/13 09:35:43;;;;;;;0.30;0.20;;;;;;;32.94;23.60;99197.28;6157043;23;20590;-92
2022/07/13 09:38:26;;;;;;;0.82;0.22;;;;;;;32.86;23.38;99194.88;6157111;23;20155;-87
2022/07/13 09:40:52;;;;;;;0.45;0.15;;;;;;;32.35;22.58;99205.00;6157304;23;20212;-87
2022/07/13 09:46:10;;;;;;;0.32;0.10;;;;;;;32.64;24.92;99197.13;6156916;23;20529;-88
2022/07/13 09:48:39;;;;;;;0.47;0.28;;;;;;;32.71;22.92;99197.06;6155599;23;20162;-89
2022/07/13 09:51:08;;;;;;;0.60;0.15;;;;;;;32.43;23.39;99191.19;6155329;23;20257;-89
2022/07/13 09:53:36;;;;;;;0.45;0.13;;;;;;;32.33;21.96;99198.97;6156079;23;20166;-88
2022/07/13 09:56:04;;;;;;;0.70;0.20;;;;;;;32.05;24.00;99197.47;6156559;23;20151;-88
2022/07/13 09:58:32;;;;;;;0.32;0.20;;;;;;;31.98;24.31;99183.09;6156137;23;20161;-88
2022/07/13 10:00:59;;;;;;;0.82;0.25;;;;;;;32.08;23.77;99182.63;6156214;23;20154;-87
2022/07/13 10:03:27;;;;;;;0.55;0.20;;;;;;;32.04;24.34;99186.84;6156481;23;20290;-87
2022/07/13 10:05:54;;;;;;;0.43;0.20;;;;;;;32.28;23.27;99182.53;6156544;23;20147;-90
2022/07/13 10:08:20;;;;;;;0.65;0.20;;;;;;;32.27;23.59;99181.69;6155242;23;20198;-89
2022/07/13 10:10:47;;;;;;;1.95;0.70;;;;;;;32.33;22.66;99180.81;6156599;23;20225;-89
2022/07/13 10:13:14;;;;;;;0.30;0.10;;;;;;;32.57;24.55;99173.81;6154916;23;20555;-88
2022/07/13 10:15:40;;;;;;;0.77;0.22;;;;;;;32.39;22.86;99177.22;6155349;23;20201;-87
2022/07/13 10:18:09;;;;;;;0.38;0.15;;;;;;;32.36;21.82;99174.13;6156370;23;20226;-89
2022/07/13 10:20:38;;;;;;;0.98;0.20;;;;;;;32.45;21.92;99180.94;6156596;23;20218;-89
2022/07/13 10:23:04;;;;;;;0.20;0.10;;;;;;;32.75;24.21;99168.44;6156331;23;20151;-89
2022/07/13 10:25:43;;;;;;;0.35;0.10;;;;;;;33.26;22.39;99158.13;6156187;23;20243;-88
2022/07/13 10:28:09;;;;;;;0.57;0.30;;;;;;;33.61;22.94;99157.56;6156312;23;20638;-89
2022/07/13 10:30:38;;;;;;;0.57;0.20;;;;;;;33.66;21.36;99163.13;6155755;23;20187;-92
2022/07/13 10:33:20;;;;;;;1.30;0.10;;;;;;;33.93;22.02;99153.59;6155993;23;20148;-89
2022/07/13 10:35:49;;;;;;;0.10;0.10;;;;;;;33.90;22.15;99138.56;6155142;23;20510;-88
2022/07/13 10:38:16;;;;;;;0.35;0.10;;;;;;;34.19;21.32;99131.47;6156478;23;20559;-87
2022/07/13 10:40:41;;;;;;;5.68;0.30;;;;;;;34.27;21.89;99128.41;6156168;23;20532;-88
2022/07/13 10:43:12;;;;;;;0.50;0.20;;;;;;;34.03;21.57;99132.09;6155983;23;20162;-90
2022/07/13 10:45:41;;;;;;;0.13;0.10;;;;;;;33.88;21.81;99139.84;6156489;23;20190;-89
2022/07/13 10:48:12;;;;;;;0.68;0.17;;;;;;;34.12;21.58;99141.59;6156209;23;20147;-90
2022/07/13 10:50:44;;;;;;;0.10;0.10;;;;;;;33.97;20.85;99143.88;6157002;23;20171;-90
2022/07/13 10:53:10;;;;;;;0.28;0.10;;;;;;;33.71;21.18;99152.41;6155828;23;20567;-89
2022/07/13 10:55:36;;;;;;;2.25;0.32;;;;;;;33.53;21.53;99138.78;6156501;23;20151;-90
2022/07/13 10:58:31;;;;;;;0.68;0.22;;;;;;;33.63;21.95;99147.28;6155926;23;20478;-88
2022/07/13 11:00:58;;;;;;;0.60;0.20;;;;;;;33.83;20.81;99132.34;6146129;23;20151;-89
2022/07/13 11:03:42;;;;;;;0.47;0.15;;;;;;;34.01;21.99;99126.06;6156184;23;20147;-91
2022/07/13 11:06:17;;;;;;;1.45;0.30;;;;;;;34.08;22.39;99123.25;6156289;23;20194;-88
2022/07/13 11:08:43;;;;;;;0.17;0.17;;;;;;;34.29;21.84;99118.13;6156351;23;20255;-89
2022/07/13 11:11:13;;;;;;;0.43;0.17;;;;;;;34.30;20.21;99118.94;6155905;23;20615;-88
2022/07/13 11:13:40;;;;;;;0.60;0.22;;;;;;;33.75;21.06;99129.16;6155947;23;20151;-88
2022/07/13 11:16:07;;;;;;;0.32;0.17;;;;;;;33.73;20.77;99131.25;6156185;23;20147;-90
2022/07/13 11:18:37;;;;;;;1.00;0.20;;;;;;;33.71;20.82;99122.50;6154569;23;20267;-91
2022/07/13 11:21:07;;;;;;;0.55;0.20;;;;;;;33.59;21.47;99127.06;6155627;23;20564;-91
2022/07/13 11:26:52;;;;;;;0.32;0.10;;;;;;;33.17;22.08;99116.03;6155770;23;20233;-89
2022/07/13 11:29:22;;;;;;;2.28;0.30;;;;;;;32.98;22.21;99110.75;6155955;23;20143;-89
2022/07/13 11:31:57;;;;;;;0.45;0.22;;;;;;;33.35;22.44;99113.31;6155885;23;20178;-90
2022/07/13 11:34:27;;;;;;;0.85;0.28;;;;;;;33.68;21.87;99112.91;6155938;23;20135;-89
2022/07/13 11:36:57;;;;;;;2.47;0.28;;;;;;;33.61;21.05;99108.63;6155285;23;20159;-90
2022/07/13 11:39:26;;;;;;;0.80;0.30;;;;;;;33.61;21.56;99108.63;6154627;23;20148;-89
2022/07/13 11:41:53;;;;;;;0.35;0.10;;;;;;;33.55;22.55;99102.16;6154329;23;20151;-88
2022/07/13 11:44:24;;;;;;;1.35;0.20;;;;;;;33.90;21.63;99103.19;6155544;23;20140;-90